Archival Weather

NSFA McMurdo Sound

NSFA McMurdo Sound, Antarctica (NZCM)

Report from: Saturday, February 24, 2024 7:55 AM UTC
Current time: Wednesday, April 24, 2024 7:07 PM UTC

Current weather – Weather history – Daily summaries
Weather forecast

Temperature-13.8°C (7.2°F)
Wind chill-21.8°C (-7.3°F)
Dew point-29.2°C (-20.6°F)
Winds 9 kts (4.6 m/s, 10.4 mph) East (100°)
Visibility6.2 mi. (10 km)
Clouds Sky clear
Altimeter29.19 in.Hg (988 mB)
Relative humidity26 %
Density altitude-6,170 ft. (-1,881 m)
Sea-level pressure108.9 kPa (1089 mB, 32.16 in.Hg)
Remarks Fully automated report
Automated weather observing station with precipitation discriminator
Flight conditions Visual Meteorological Conditions
Raw dataNZCM 240755Z AUTO 10009KT 9999 CLR M14/M29 A2919 RMK AO2 SLP892 T11381292
An error has occurred. This application may no longer respond until reloaded. Reload 🗙